Terminal Aerodrome Forecast
Issued by NWS Wilmington, OH

Current Version | Previous Version | Text Only | Print | Product List | Glossary Off
Versions: 1 2 3 4 5 6 7 8 9 10 11 12 13 14 15 16 17 18 19 20 21 22 23 24 25 26 27 28

000
FTUS41 KILN 070524
TAFCVG
TAF
KCVG 070524Z 0706/0812 20005KT P6SM FEW250
     FM071500 21013KT P6SM SCT150
     FM072300 22006KT P6SM BKN050 OVC120
     FM080300 20006KT P6SM VCSH SCT025 OVC035=

USA.gov is the U.S. government's official web portal to all federal, state and local government web resources and services.